Time,TemperatureF,DewpointF,PressureIn,WindDirection,WindDirectionDegrees,WindSpeedMPH,WindSpeedGustMPH,Humidity,HourlyPrecipIn,Conditions,Clouds,dailyrainin,SoftwareType,DateUTC
2013-08-17 00:00:00,76.5,45.2,30.06,North,1,1.0,6.0,33,0.36,,,0.00,WeatherCatV1.02B3,2013-08-17 04:00:00,
2013-08-17 00:01:00,76.5,45.2,30.06,North,1,0.0,6.0,33,0.35,,,0.00,WeatherCatV1.02B3,2013-08-17 04:01:00,
2013-08-17 00:06:00,76.6,45.3,30.06,North,1,5.0,5.0,33,0.10,,,0.01,WeatherCatV1.02B3,2013-08-17 04:06:00,
2013-08-17 00:11:00,76.5,45.2,30.06,North,1,0.0,0.0,33,0.10,,,0.01,WeatherCatV1.02B3,2013-08-17 04:11:00,
2013-08-17 00:16:00,76.4,45.1,30.06,North,1,0.0,0.0,33,0.05,,,0.01,WeatherCatV1.02B3,2013-08-17 04:16:00,
2013-08-17 00:21:00,76.5,45.2,30.06,North,1,0.0,0.0,33,0.04,,,0.01,WeatherCatV1.02B3,2013-08-17 04:21:00,
2013-08-17 00:26:00,76.4,45.1,30.06,North,1,0.0,0.0,33,0.00,,,0.01,WeatherCatV1.02B3,2013-08-17 04:26:00,
2013-08-17 00:31:00,76.2,45.0,30.06,North,1,0.0,0.0,33,0.00,,,0.01,WeatherCatV1.02B3,2013-08-17 04:31:00,
2013-08-17 00:36:00,76.3,45.1,30.06,North,1,4.0,4.0,33,0.00,,,0.01,WeatherCatV1.02B3,2013-08-17 04:36:00,
2013-08-17 00:41:00,-999.0,-99.9,30.07,North,1,4.0,5.0,33,0.32,,,0.06,WeatherCatV1.02B3,2013-08-17 04:41:00,
2013-08-17 00:46:00,-999.0,-99.9,30.07,SSW,202,3.0,7.0,33,0.37,,,0.11,WeatherCatV1.02B3,2013-08-17 04:46:00,
2013-08-17 00:51:00,-999.0,-99.9,30.07,SSW,210,7.0,11.0,33,0.35,,,0.14,WeatherCatV1.02B3,2013-08-17 04:51:00,
2013-08-17 00:56:00,-999.0,-99.9,30.07,SW,230,3.0,5.0,33,0.46,,,0.18,WeatherCatV1.02B3,2013-08-17 04:56:00,
2013-08-17 01:01:00,-999.0,-99.9,30.07,SSW,206,2.0,5.0,33,0.21,,,0.22,WeatherCatV1.02B3,2013-08-17 05:01:00,
2013-08-17 01:06:00,-999.0,-99.9,30.07,SSW,209,0.0,3.0,-999,0.08,,,0.22,WeatherCatV1.02B3,2013-08-17 05:06:00,
2013-08-17 01:11:00,-999.0,-99.9,30.06,SSW,209,0.0,0.0,-999,0.05,,,0.22,WeatherCatV1.02B3,2013-08-17 05:11:00,
2013-08-17 01:16:00,-999.0,-99.9,30.06,WSW,251,2.0,6.0,-999,0.00,,,0.22,WeatherCatV1.02B3,2013-08-17 05:16:00,
2013-08-17 01:21:00,-999.0,-99.9,30.06,WSW,252,0.0,4.0,-999,0.00,,,0.22,WeatherCatV1.02B3,2013-08-17 05:21:00,
2013-08-17 01:26:00,-999.0,-99.9,30.06,WSW,252,0.0,0.0,-999,0.00,,,0.22,WeatherCatV1.02B3,2013-08-17 05:26:00,
2013-08-17 01:31:00,-999.0,-99.9,30.06,WSW,252,0.0,0.0,-999,0.00,,,0.22,WeatherCatV1.02B3,2013-08-17 05:31:00,
2013-08-17 01:36:00,-999.0,-99.9,30.06,WSW,252,0.0,0.0,-999,0.00,,,0.22,WeatherCatV1.02B3,2013-08-17 05:36:00,
2013-08-17 01:41:00,-999.0,-99.9,30.05,WSW,252,0.0,0.0,-999,0.00,,,0.23,WeatherCatV1.02B3,2013-08-17 05:41:00,
2013-08-17 01:46:00,-999.0,-99.9,30.05,WSW,252,0.0,0.0,-999,0.00,,,0.23,WeatherCatV1.02B3,2013-08-17 05:46:00,
2013-08-17 01:51:00,-999.0,-99.9,30.05,WSW,252,0.0,0.0,-999,0.00,,,0.23,WeatherCatV1.02B3,2013-08-17 05:51:00,
2013-08-17 01:56:00,-999.0,-99.9,30.05,WSW,252,0.0,0.0,-999,0.00,,,0.23,WeatherCatV1.02B3,2013-08-17 05:56:00,
2013-08-17 02:00:00,76.4,45.2,30.05,WSW,252,0.0,0.0,50,0.00,,,0.00,WeatherCatV1.02B3,2013-08-17 06:00:00,
2013-08-17 02:05:00,32.0,32.0,30.05,WSW,252,0.0,0.0,50,0.00,,,0.00,WeatherCatV1.02B3,2013-08-17 06:05:00,
2013-08-17 02:10:00,32.0,32.0,30.05,WSW,252,0.0,0.0,50,0.00,,,0.00,WeatherCatV1.02B3,2013-08-17 06:10:00,
2013-08-17 02:15:00,50.0,50.0,30.05,SSW,202,0.0,0.0,50,0.00,,,0.00,WeatherCatV1.02B3,2013-08-17 06:15:00,
2013-08-17 02:20:00,50.0,50.0,30.05,SSW,202,0.0,0.0,50,0.00,,,0.00,WeatherCatV1.02B3,2013-08-17 06:20:00,
2013-08-17 02:25:00,50.0,50.0,30.05,SSW,202,0.0,0.0,50,0.00,,,0.00,WeatherCatV1.02B3,2013-08-17 06:25:00,
2013-08-17 02:30:00,50.0,50.0,30.05,SSW,202,0.0,0.0,50,0.00,,,0.00,WeatherCatV1.02B3,2013-08-17 06:30:00,
2013-08-17 02:35:00,50.0,50.0,30.05,SSW,202,0.0,0.0,50,0.00,,,0.00,WeatherCatV1.02B3,2013-08-17 06:35:00,
2013-08-17 02:40:00,50.0,50.0,30.05,SSW,202,0.0,0.0,50,0.00,,,0.00,WeatherCatV1.02B3,2013-08-17 06:40:00,
2013-08-17 02:45:00,32.0,32.0,30.03,WSW,252,0.0,0.0,1,0.00,,,0.00,WeatherCatV1.02B3,2013-08-17 06:45:00,
2013-08-17 02:50:00,32.0,32.0,30.03,WSW,252,0.0,0.0,1,0.00,,,0.00,WeatherCatV1.02B3,2013-08-17 06:50:00,
2013-08-17 02:55:00,32.0,32.0,30.03,WSW,252,0.0,0.0,1,0.00,,,0.00,WeatherCatV1.02B3,2013-08-17 06:55:00,
2013-08-17 03:00:00,32.0,32.0,30.03,WSW,252,0.0,0.0,1,0.00,,,0.00,WeatherCatV1.02B3,2013-08-17 07:00:00,
2013-08-17 03:05:00,32.0,32.0,30.03,WSW,252,0.0,0.0,1,0.00,,,0.00,WeatherCatV1.02B3,2013-08-17 07:05:00,
2013-08-17 03:10:00,32.0,32.0,30.03,WSW,252,0.0,0.0,1,0.00,,,0.00,WeatherCatV1.02B3,2013-08-17 07:10:00,
2013-08-17 03:15:00,32.0,32.0,30.04,WSW,252,0.0,0.0,1,0.00,,,0.00,WeatherCatV1.02B3,2013-08-17 07:15:00,
2013-08-17 03:20:00,32.0,32.0,30.04,WSW,252,0.0,0.0,1,0.00,,,0.00,WeatherCatV1.02B3,2013-08-17 07:20:00,
2013-08-17 03:25:00,32.0,32.0,30.03,WSW,252,0.0,0.0,1,0.00,,,0.00,WeatherCatV1.02B3,2013-08-17 07:25:00,
2013-08-17 03:30:00,32.0,32.0,30.03,WSW,252,0.0,0.0,1,0.00,,,0.00,WeatherCatV1.02B3,2013-08-17 07:30:00,
2013-08-17 03:35:00,32.0,32.0,30.03,WSW,251,0.0,0.0,50,0.00,,,0.00,WeatherCatV1.02B3,2013-08-17 07:35:00,
2013-08-17 03:40:00,32.0,32.0,30.03,WSW,251,0.0,0.0,50,0.00,,,0.00,WeatherCatV1.02B3,2013-08-17 07:40:00,
2013-08-17 03:45:00,32.0,32.0,30.02,WSW,251,0.0,0.0,50,0.00,,,0.00,WeatherCatV1.02B3,2013-08-17 07:45:00,
2013-08-17 03:50:00,32.0,32.0,30.02,WSW,251,0.0,0.0,50,0.00,,,0.00,WeatherCatV1.02B3,2013-08-17 07:50:00,
2013-08-17 03:55:00,32.0,32.0,30.03,WSW,251,0.0,0.0,50,0.00,,,0.00,WeatherCatV1.02B3,2013-08-17 07:55:00,
2013-08-17 04:00:00,32.0,32.0,30.03,WSW,251,0.0,0.0,50,0.00,,,0.00,WeatherCatV1.02B3,2013-08-17 08:00:00,
2013-08-17 04:05:00,32.0,32.0,30.02,WSW,251,0.0,0.0,50,0.00,,,0.00,WeatherCatV1.02B3,2013-08-17 08:05:00,
2013-08-17 04:10:00,32.0,32.0,30.02,WSW,251,0.0,0.0,50,0.00,,,0.00,WeatherCatV1.02B3,2013-08-17 08:10:00,
2013-08-17 04:15:00,32.0,32.0,30.02,WSW,251,0.0,0.0,50,0.00,,,0.00,WeatherCatV1.02B3,2013-08-17 08:15:00,
2013-08-17 04:20:00,32.0,32.0,30.03,WSW,251,0.0,0.0,50,0.00,,,0.00,WeatherCatV1.02B3,2013-08-17 08:20:00,
2013-08-17 04:25:00,32.0,32.0,30.02,WSW,251,0.0,0.0,50,0.00,,,0.00,WeatherCatV1.02B3,2013-08-17 08:25:00,
2013-08-17 04:30:00,32.0,32.0,30.02,WSW,251,0.0,0.0,50,0.00,,,0.00,WeatherCatV1.02B3,2013-08-17 08:30:00,
2013-08-17 04:35:00,32.0,32.0,30.02,WSW,251,0.0,0.0,50,0.00,,,0.00,WeatherCatV1.02B3,2013-08-17 08:35:00,
2013-08-17 04:40:00,32.0,32.0,30.02,WSW,251,0.0,0.0,50,0.00,,,0.00,WeatherCatV1.02B3,2013-08-17 08:40:00,
2013-08-17 04:45:00,32.0,32.0,30.01,WSW,251,0.0,0.0,50,0.00,,,0.00,WeatherCatV1.02B3,2013-08-17 08:45:00,
2013-08-17 04:50:00,32.0,32.0,30.01,WSW,251,0.0,0.0,50,0.00,,,0.00,WeatherCatV1.02B3,2013-08-17 08:50:00,
2013-08-17 04:55:00,32.0,32.0,30.01,WSW,251,0.0,2.0,50,0.00,,,0.00,WeatherCatV1.02B3,2013-08-17 08:55:00,
2013-08-17 05:00:00,32.0,32.0,30.01,WSW,251,0.0,3.0,50,0.00,,,0.00,WeatherCatV1.02B3,2013-08-17 09:00:00,
2013-08-17 05:05:00,32.0,32.0,30.00,WSW,251,0.0,3.0,50,0.00,,,0.00,WeatherCatV1.02B3,2013-08-17 09:05:00,
2013-08-17 05:10:00,32.0,32.0,30.01,WSW,251,0.0,0.0,50,0.00,,,0.00,WeatherCatV1.02B3,2013-08-17 09:10:00,
2013-08-17 05:15:00,32.0,32.0,30.01,WNW,283,1.0,4.0,50,0.00,,,0.00,WeatherCatV1.02B3,2013-08-17 09:15:00,
2013-08-17 05:20:00,32.0,32.0,30.01,WNW,283,1.0,4.0,50,0.00,,,0.00,WeatherCatV1.02B3,2013-08-17 09:20:00,
2013-08-17 05:25:00,32.0,32.0,30.01,WNW,284,1.0,1.0,50,0.00,,,0.00,WeatherCatV1.02B3,2013-08-17 09:25:00,
2013-08-17 05:30:00,32.0,32.0,30.01,WNW,284,0.0,0.0,50,0.00,,,0.00,WeatherCatV1.02B3,2013-08-17 09:30:00,
2013-08-17 05:35:00,32.0,32.0,30.01,WNW,284,0.0,2.0,50,0.00,,,0.00,WeatherCatV1.02B3,2013-08-17 09:35:00,
2013-08-17 05:40:00,32.0,32.0,30.01,WNW,284,0.0,0.0,50,0.00,,,0.00,WeatherCatV1.02B3,2013-08-17 09:40:00,
2013-08-17 05:45:00,32.0,32.0,30.01,WNW,284,0.0,0.0,50,0.00,,,0.00,WeatherCatV1.02B3,2013-08-17 09:45:00,
2013-08-17 05:50:00,32.0,32.0,30.01,WNW,284,0.0,0.0,50,0.00,,,0.00,WeatherCatV1.02B3,2013-08-17 09:50:00,
2013-08-17 05:55:00,32.0,32.0,30.01,WNW,284,0.0,1.0,50,0.00,,,0.00,WeatherCatV1.02B3,2013-08-17 09:55:00,
2013-08-17 06:00:00,32.0,32.0,30.01,WNW,284,0.0,1.0,50,0.00,,,0.00,WeatherCatV1.02B3,2013-08-17 10:00:00,
2013-08-17 06:05:00,32.0,32.0,30.02,WNW,284,0.0,1.0,50,0.00,,,0.00,WeatherCatV1.02B3,2013-08-17 10:05:00,
2013-08-17 06:10:00,32.0,32.0,30.02,WNW,284,0.0,3.0,50,0.00,,,0.00,WeatherCatV1.02B3,2013-08-17 10:10:00,
2013-08-17 06:15:00,32.0,32.0,30.02,WNW,284,0.0,1.0,50,0.00,,,0.00,WeatherCatV1.02B3,2013-08-17 10:15:00,
2013-08-17 06:20:00,32.0,32.0,30.02,WNW,284,0.0,2.0,50,0.00,,,0.00,WeatherCatV1.02B3,2013-08-17 10:20:00,
2013-08-17 06:25:00,32.0,32.0,30.02,WNW,284,0.0,0.0,50,0.00,,,0.00,WeatherCatV1.02B3,2013-08-17 10:25:00,
2013-08-17 06:30:00,32.0,32.0,30.03,WNW,284,0.0,0.0,50,0.00,,,0.00,WeatherCatV1.02B3,2013-08-17 10:30:00,
2013-08-17 06:35:00,32.0,32.0,30.03,WNW,284,0.0,0.0,50,0.00,,,0.00,WeatherCatV1.02B3,2013-08-17 10:35:00,
2013-08-17 06:40:00,32.0,32.0,30.03,WNW,288,0.0,6.0,50,0.00,,,0.00,WeatherCatV1.02B3,2013-08-17 10:40:00,
2013-08-17 06:45:00,32.0,32.0,30.03,NNW,337,1.0,4.0,50,0.00,,,0.00,WeatherCatV1.02B3,2013-08-17 10:45:00,
2013-08-17 06:50:00,32.0,32.0,30.03,NNW,337,1.0,4.0,50,0.00,,,0.00,WeatherCatV1.02B3,2013-08-17 10:50:00,
2013-08-17 06:55:00,32.0,32.0,30.03,NNW,338,0.0,1.0,50,0.00,,,0.00,WeatherCatV1.02B3,2013-08-17 10:55:00,
2013-08-17 07:00:00,32.0,32.0,30.03,NNW,338,0.0,2.0,50,0.00,,,0.00,WeatherCatV1.02B3,2013-08-17 11:00:00,
2013-08-17 07:05:00,32.0,32.0,30.03,NNW,338,0.0,3.0,50,0.00,,,0.00,WeatherCatV1.02B3,2013-08-17 11:05:00,
2013-08-17 07:10:00,32.0,32.0,30.04,NNW,338,0.0,0.0,50,0.00,,,0.00,WeatherCatV1.02B3,2013-08-17 11:10:00,
2013-08-17 07:15:00,32.0,32.0,30.04,NNW,338,0.0,0.0,50,0.00,,,0.00,WeatherCatV1.02B3,2013-08-17 11:15:00,
2013-08-17 07:20:00,32.0,32.0,30.04,NNW,338,0.0,4.0,50,0.00,,,0.00,WeatherCatV1.02B3,2013-08-17 11:20:00,
2013-08-17 07:25:00,32.0,32.0,30.04,NNW,338,0.0,2.0,50,0.00,,,0.00,WeatherCatV1.02B3,2013-08-17 11:25:00,
2013-08-17 07:30:00,32.0,32.0,30.04,NNW,338,0.0,0.0,50,0.00,,,0.00,WeatherCatV1.02B3,2013-08-17 11:30:00,
2013-08-17 07:35:00,32.0,32.0,30.05,NNW,338,0.0,0.0,50,0.00,,,0.00,WeatherCatV1.02B3,2013-08-17 11:35:00,
2013-08-17 07:40:00,32.0,32.0,30.05,NNW,338,0.0,0.0,50,0.00,,,0.00,WeatherCatV1.02B3,2013-08-17 11:40:00,
2013-08-17 07:45:00,32.0,32.0,30.05,NNW,338,0.0,0.0,50,0.00,,,0.00,WeatherCatV1.02B3,2013-08-17 11:45:00,
2013-08-17 07:50:00,32.0,32.0,30.05,NNW,338,0.0,0.0,50,0.00,,,0.00,WeatherCatV1.02B3,2013-08-17 11:50:00,
2013-08-17 07:55:00,32.0,32.0,30.05,NNW,338,0.0,4.0,50,0.00,,,0.00,WeatherCatV1.02B3,2013-08-17 11:55:00,
2013-08-17 08:00:00,32.0,32.0,30.05,NNW,338,0.0,0.0,50,0.00,,,0.00,WeatherCatV1.02B3,2013-08-17 12:00:00,
2013-08-17 08:05:00,32.0,32.0,30.06,NNW,338,0.0,0.0,50,0.00,,,0.00,WeatherCatV1.02B3,2013-08-17 12:05:00,
2013-08-17 08:10:00,32.0,32.0,30.06,NNW,338,0.0,0.0,50,0.00,,,0.00,WeatherCatV1.02B3,2013-08-17 12:10:00,
2013-08-17 08:15:00,32.0,32.0,30.06,NNW,338,0.0,0.0,50,0.00,,,0.00,WeatherCatV1.02B3,2013-08-17 12:15:00,
2013-08-17 08:20:00,32.0,32.0,30.06,NNW,338,0.0,0.0,50,0.00,,,0.00,WeatherCatV1.02B3,2013-08-17 12:20:00,
2013-08-17 08:25:00,32.0,32.0,30.06,NNW,338,0.0,2.0,50,0.00,,,0.00,WeatherCatV1.02B3,2013-08-17 12:25:00,
2013-08-17 08:30:00,32.0,32.0,30.06,NNW,338,0.0,2.0,50,0.00,,,0.00,WeatherCatV1.02B3,2013-08-17 12:30:00,
2013-08-17 08:35:00,32.0,32.0,30.06,NNW,338,0.0,1.0,50,0.00,,,0.00,WeatherCatV1.02B3,2013-08-17 12:35:00,
2013-08-17 08:40:00,32.0,32.0,30.06,NNW,338,0.0,1.0,50,0.00,,,0.00,WeatherCatV1.02B3,2013-08-17 12:40:00,
2013-08-17 08:45:00,32.0,32.0,30.06,NNW,338,0.0,4.0,50,0.00,,,0.00,WeatherCatV1.02B3,2013-08-17 12:45:00,
2013-08-17 08:50:00,32.0,32.0,30.06,NNW,338,0.0,4.0,50,0.00,,,0.00,WeatherCatV1.02B3,2013-08-17 12:50:00,
2013-08-17 08:55:00,32.0,32.0,30.06,NNW,338,1.0,6.0,50,0.00,,,0.00,WeatherCatV1.02B3,2013-08-17 12:55:00,
2013-08-17 09:00:00,32.0,32.0,30.06,NNW,339,2.0,6.0,50,0.00,,,0.00,WeatherCatV1.02B3,2013-08-17 13:00:00,
2013-08-17 09:05:00,32.0,32.0,30.06,North,355,2.0,6.0,50,0.00,,,0.00,WeatherCatV1.02B3,2013-08-17 13:05:00,
2013-08-17 09:10:00,32.0,32.0,30.06,NE,37,2.0,12.0,50,0.00,,,0.00,WeatherCatV1.02B3,2013-08-17 13:10:00,
2013-08-17 09:15:00,32.0,32.0,30.06,ENE,59,4.0,10.0,50,0.00,,,0.00,WeatherCatV1.02B3,2013-08-17 13:15:00,
2013-08-17 09:20:00,32.0,32.0,30.06,ENE,59,4.0,10.0,50,0.00,,,0.00,WeatherCatV1.02B3,2013-08-17 13:20:00,
2013-08-17 09:25:00,32.0,32.0,30.06,NE,56,3.0,7.0,50,0.00,,,0.00,WeatherCatV1.02B3,2013-08-17 13:25:00,
2013-08-17 09:30:00,32.0,32.0,30.06,ENE,62,3.0,7.0,50,0.00,,,0.00,WeatherCatV1.02B3,2013-08-17 13:30:00,
2013-08-17 09:35:00,32.0,32.0,30.06,East,86,3.0,10.0,50,0.00,,,0.00,WeatherCatV1.02B3,2013-08-17 13:35:00,
2013-08-17 09:40:00,32.0,32.0,30.07,East,89,3.0,10.0,50,0.00,,,0.00,WeatherCatV1.02B3,2013-08-17 13:40:00,
2013-08-17 09:45:00,32.0,32.0,30.07,East,86,4.0,9.0,50,0.00,,,0.00,WeatherCatV1.02B3,2013-08-17 13:45:00,
2013-08-17 09:57:00,32.0,32.0,30.07,ENE,73,4.0,8.0,32,0.00,,,0.00,WeatherCatV1.02B3,2013-08-17 13:57:00,
2013-08-17 10:02:00,83.6,50.6,30.07,ENE,60,6.0,6.0,32,0.00,,,0.24,WeatherCatV1.02B3,2013-08-17 14:02:00,
2013-08-17 10:07:00,84.0,50.9,30.08,ESE,107,5.0,10.0,32,0.00,,,0.24,WeatherCatV1.02B3,2013-08-17 14:07:00,
2013-08-17 10:12:00,84.5,53.0,30.08,NE,36,5.0,10.0,34,0.00,,,0.24,WeatherCatV1.02B3,2013-08-17 14:12:00,
2013-08-17 10:17:00,84.6,56.9,30.08,NE,54,0.0,8.0,39,0.00,,,0.24,WeatherCatV1.02B3,2013-08-17 14:17:00,
2013-08-17 10:22:00,85.0,58.6,30.08,East,90,5.0,7.0,41,0.00,,,0.24,WeatherCatV1.02B3,2013-08-17 14:22:00,
2013-08-17 10:27:00,85.3,62.8,30.08,East,90,3.0,4.0,47,0.00,,,0.24,WeatherCatV1.02B3,2013-08-17 14:27:00,
2013-08-17 10:32:00,85.8,67.2,30.08,NNE,27,6.0,7.0,54,0.00,,,0.24,WeatherCatV1.02B3,2013-08-17 14:32:00,
2013-08-17 10:37:00,86.1,66.9,30.08,ENE,62,7.0,7.0,53,0.00,,,0.24,WeatherCatV1.02B3,2013-08-17 14:37:00,
2013-08-17 10:42:00,85.5,68.5,30.08,NE,39,3.0,8.0,57,0.00,,,0.24,WeatherCatV1.02B3,2013-08-17 14:42:00,
2013-08-17 10:47:00,84.9,67.4,30.08,NE,53,0.0,5.0,56,0.00,,,0.24,WeatherCatV1.02B3,2013-08-17 14:47:00,
2013-08-17 10:52:00,85.3,66.2,30.08,NE,52,0.0,4.0,53,0.00,,,0.24,WeatherCatV1.02B3,2013-08-17 14:52:00,
2013-08-17 10:57:00,85.7,66.6,30.08,East,92,7.0,7.0,53,0.00,,,0.24,WeatherCatV1.02B3,2013-08-17 14:57:00,
2013-08-17 11:02:00,85.6,67.0,30.07,East,98,0.0,0.0,54,0.00,,,0.24,WeatherCatV1.02B3,2013-08-17 15:02:00,
2013-08-17 11:07:00,85.7,68.2,30.07,East,98,2.0,6.0,56,0.00,,,0.24,WeatherCatV1.02B3,2013-08-17 15:07:00,
2013-08-17 11:12:00,86.1,68.5,30.07,East,92,3.0,9.0,56,0.00,,,0.24,WeatherCatV1.02B3,2013-08-17 15:12:00,
2013-08-17 11:17:00,86.5,69.9,30.07,ENE,78,3.0,7.0,58,0.00,,,0.24,WeatherCatV1.02B3,2013-08-17 15:17:00,
2013-08-17 11:22:00,87.1,71.0,30.07,East,91,6.0,6.0,59,0.00,,,0.24,WeatherCatV1.02B3,2013-08-17 15:22:00,
2013-08-17 11:28:00,86.8,70.2,30.07,ESE,109,0.0,6.0,58,0.00,,,0.24,WeatherCatV1.02B3,2013-08-17 15:28:00,
2013-08-17 11:33:00,86.3,70.2,30.07,East,90,1.0,6.0,59,0.00,,,0.24,WeatherCatV1.02B3,2013-08-17 15:33:00,
2013-08-17 11:38:00,86.7,70.6,30.07,ESE,103,2.0,6.0,59,0.00,,,0.24,WeatherCatV1.02B3,2013-08-17 15:38:00,
2013-08-17 11:43:00,87.0,71.9,30.07,ENE,69,0.0,4.0,61,0.00,,,0.24,WeatherCatV1.02B3,2013-08-17 15:43:00,
2013-08-17 11:48:00,87.1,72.0,30.07,SE,127,11.0,11.0,61,0.00,,,0.24,WeatherCatV1.02B3,2013-08-17 15:48:00,
2013-08-17 11:53:00,87.3,72.2,30.07,East,87,3.0,10.0,61,0.00,,,0.24,WeatherCatV1.02B3,2013-08-17 15:53:00,
2013-08-17 11:58:00,88.2,73.0,30.07,East,87,0.0,4.0,61,0.00,,,0.24,WeatherCatV1.02B3,2013-08-17 15:58:00,
2013-08-17 12:03:00,88.3,74.5,30.07,ESE,102,5.0,14.0,64,0.00,,,0.24,WeatherCatV1.02B3,2013-08-17 16:03:00,
2013-08-17 12:08:00,87.7,73.5,30.07,NE,51,4.0,6.0,63,0.00,,,0.24,WeatherCatV1.02B3,2013-08-17 16:08:00,
2013-08-17 12:13:00,87.5,73.3,30.06,NE,51,0.0,3.0,63,0.00,,,0.24,WeatherCatV1.02B3,2013-08-17 16:13:00,
2013-08-17 12:18:00,87.5,72.4,30.06,NE,51,0.0,0.0,61,0.00,,,0.24,WeatherCatV1.02B3,2013-08-17 16:18:00,
2013-08-17 12:23:00,88.7,74.0,30.06,NE,51,0.0,5.0,62,0.00,,,0.24,WeatherCatV1.02B3,2013-08-17 16:23:00,
2013-08-17 12:28:00,89.5,74.7,30.06,NNE,18,0.0,8.0,62,0.00,,,0.24,WeatherCatV1.02B3,2013-08-17 16:28:00,
2013-08-17 12:33:00,89.4,76.5,30.06,NNE,17,2.0,8.0,66,0.00,,,0.24,WeatherCatV1.02B3,2013-08-17 16:33:00,
2013-08-17 12:38:00,89.9,76.5,30.05,North,356,10.0,10.0,65,0.00,,,0.24,WeatherCatV1.02B3,2013-08-17 16:38:00,
2013-08-17 12:43:00,90.6,77.2,30.05,NNE,33,3.0,11.0,65,0.00,,,0.24,WeatherCatV1.02B3,2013-08-17 16:43:00,
2013-08-17 12:48:00,88.9,75.6,30.06,ENE,75,4.0,7.0,65,0.00,,,0.24,WeatherCatV1.02B3,2013-08-17 16:48:00,
2013-08-17 12:53:00,88.2,74.9,30.05,NE,44,6.0,12.0,65,0.00,,,0.24,WeatherCatV1.02B3,2013-08-17 16:53:00,
2013-08-17 12:58:00,89.1,75.3,30.05,ENE,64,1.0,6.0,64,0.00,,,0.24,WeatherCatV1.02B3,2013-08-17 16:58:00,
2013-08-17 13:03:00,89.0,75.2,30.05,ENE,69,0.0,1.0,64,0.00,,,0.24,WeatherCatV1.02B3,2013-08-17 17:03:00,
2013-08-17 13:08:00,90.4,77.0,30.05,North,11,4.0,9.0,65,0.00,,,0.24,WeatherCatV1.02B3,2013-08-17 17:08:00,
2013-08-17 13:13:00,90.2,76.3,30.05,NNE,12,4.0,4.0,64,0.00,,,0.24,WeatherCatV1.02B3,2013-08-17 17:13:00,
2013-08-17 13:18:00,89.8,76.4,30.05,NNE,33,0.0,3.0,65,0.00,,,0.24,WeatherCatV1.02B3,2013-08-17 17:18:00,
2013-08-17 13:23:00,90.4,77.0,30.05,East,85,2.0,8.0,65,0.00,,,0.24,WeatherCatV1.02B3,2013-08-17 17:23:00,
2013-08-17 13:28:00,90.6,77.2,30.04,NE,41,4.0,7.0,65,0.00,,,0.24,WeatherCatV1.02B3,2013-08-17 17:28:00,
2013-08-17 13:33:00,90.7,77.3,30.05,North,8,3.0,6.0,65,0.00,,,0.24,WeatherCatV1.02B3,2013-08-17 17:33:00,
2013-08-17 13:38:00,89.6,76.2,30.04,East,92,2.0,9.0,65,0.00,,,0.24,WeatherCatV1.02B3,2013-08-17 17:38:00,
2013-08-17 13:43:00,90.2,76.8,30.04,North,2,0.0,6.0,65,0.00,,,0.24,WeatherCatV1.02B3,2013-08-17 17:43:00,
2013-08-17 13:48:00,90.1,76.7,30.04,NE,39,6.0,10.0,65,0.00,,,0.24,WeatherCatV1.02B3,2013-08-17 17:48:00,
2013-08-17 13:53:00,89.3,76.4,30.04,North,353,2.0,10.0,66,0.00,,,0.24,WeatherCatV1.02B3,2013-08-17 17:53:00,
2013-08-17 13:58:00,89.3,76.0,30.03,North,5,1.0,7.0,65,0.00,,,0.24,WeatherCatV1.02B3,2013-08-17 17:58:00,
2013-08-17 14:03:00,89.8,76.4,30.03,North,5,0.0,1.0,65,0.00,,,0.24,WeatherCatV1.02B3,2013-08-17 18:03:00,
2013-08-17 14:08:00,90.0,76.6,30.03,North,3,0.0,5.0,65,0.00,,,0.24,WeatherCatV1.02B3,2013-08-17 18:08:00,
2013-08-17 14:13:00,90.8,77.4,30.03,North,3,0.0,6.0,65,0.00,,,0.24,WeatherCatV1.02B3,2013-08-17 18:13:00,
2013-08-17 14:18:00,91.0,77.6,30.03,ENE,78,2.0,9.0,65,0.00,,,0.24,WeatherCatV1.02B3,2013-08-17 18:18:00,
2013-08-17 14:23:00,90.9,77.5,30.02,NE,38,0.0,6.0,65,0.00,,,0.24,WeatherCatV1.02B3,2013-08-17 18:23:00,
2013-08-17 14:28:00,92.0,78.5,30.02,NNE,15,1.0,4.0,65,0.00,,,0.24,WeatherCatV1.02B3,2013-08-17 18:28:00,
2013-08-17 14:33:00,92.1,78.6,30.02,NNE,12,1.0,1.0,65,0.00,,,0.24,WeatherCatV1.02B3,2013-08-17 18:33:00,
2013-08-17 14:38:00,91.1,77.7,30.02,North,10,5.0,5.0,65,0.00,,,0.24,WeatherCatV1.02B3,2013-08-17 18:38:00,
2013-08-17 14:43:00,91.5,78.0,30.02,NNE,13,5.0,5.0,65,0.00,,,0.24,WeatherCatV1.02B3,2013-08-17 18:43:00,
2013-08-17 14:48:00,90.6,77.2,30.01,NE,36,0.0,0.0,65,0.00,,,0.24,WeatherCatV1.02B3,2013-08-17 18:48:00,
2013-08-17 14:53:00,89.9,76.5,30.01,NE,36,0.0,1.0,65,0.00,,,0.24,WeatherCatV1.02B3,2013-08-17 18:53:00,
2013-08-17 14:58:00,89.7,76.3,30.01,NE,36,0.0,3.0,65,0.00,,,0.24,WeatherCatV1.02B3,2013-08-17 18:58:00,
2013-08-17 15:03:00,89.7,76.3,30.01,NE,35,2.0,5.0,65,0.00,,,0.24,WeatherCatV1.02B3,2013-08-17 19:03:00,
2013-08-17 15:08:00,89.7,76.3,30.01,NE,35,0.0,4.0,65,0.00,,,0.24,WeatherCatV1.02B3,2013-08-17 19:08:00,
2013-08-17 15:13:00,89.0,75.7,30.01,NE,35,0.0,2.0,65,0.00,,,0.24,WeatherCatV1.02B3,2013-08-17 19:13:00,
2013-08-17 15:18:00,88.8,75.9,30.00,NE,35,1.0,3.0,66,0.00,,,0.24,WeatherCatV1.02B3,2013-08-17 19:18:00,
2013-08-17 15:23:00,88.7,75.4,30.00,NE,35,0.0,0.0,65,0.00,,,0.24,WeatherCatV1.02B3,2013-08-17 19:23:00,
2013-08-17 15:28:00,89.9,77.0,30.00,NE,35,0.0,0.0,66,0.00,,,0.24,WeatherCatV1.02B3,2013-08-17 19:28:00,
2013-08-17 15:33:00,91.5,77.1,30.00,NE,35,3.0,4.0,63,0.00,,,0.24,WeatherCatV1.02B3,2013-08-17 19:33:00,
2013-08-17 15:38:00,92.9,77.9,30.00,NE,35,2.0,7.0,62,0.00,,,0.24,WeatherCatV1.02B3,2013-08-17 19:38:00,
2013-08-17 15:43:00,93.0,77.0,30.00,NNW,346,1.0,6.0,60,0.00,,,0.24,WeatherCatV1.02B3,2013-08-17 19:43:00,
2013-08-17 15:48:00,92.5,78.5,30.00,NNW,346,4.0,6.0,64,0.00,,,0.24,WeatherCatV1.02B3,2013-08-17 19:48:00,
2013-08-17 15:53:00,93.7,79.2,29.99,North,354,4.0,7.0,63,0.00,,,0.24,WeatherCatV1.02B3,2013-08-17 19:53:00,
2013-08-17 15:58:00,92.7,78.2,29.99,NNE,13,1.0,7.0,63,0.00,,,0.24,WeatherCatV1.02B3,2013-08-17 19:58:00,
2013-08-17 16:03:00,91.7,77.8,29.99,NNE,12,0.0,6.0,64,0.00,,,0.24,WeatherCatV1.02B3,2013-08-17 20:03:00,
2013-08-17 16:08:00,91.5,78.0,29.99,NNE,21,0.0,7.0,65,0.00,,,0.24,WeatherCatV1.02B3,2013-08-17 20:08:00,
2013-08-17 16:13:00,90.4,77.0,29.99,NNE,17,11.0,16.0,65,0.00,,,0.24,WeatherCatV1.02B3,2013-08-17 20:13:00,
2013-08-17 16:18:00,88.9,75.6,29.99,North,356,4.0,5.0,65,0.00,,,0.24,WeatherCatV1.02B3,2013-08-17 20:18:00,
2013-08-17 16:23:00,87.8,74.5,29.99,North,353,3.0,10.0,65,0.00,,,0.24,WeatherCatV1.02B3,2013-08-17 20:23:00,
2013-08-17 16:28:00,87.0,73.8,29.99,NNE,15,3.0,15.0,65,0.00,,,0.24,WeatherCatV1.02B3,2013-08-17 20:28:00,
2013-08-17 16:33:00,86.1,72.5,30.00,North,11,13.0,16.0,64,1.29,,,0.28,WeatherCatV1.02B3,2013-08-17 20:33:00,
2013-08-17 16:38:00,82.4,64.6,30.02,NE,36,4.0,19.0,55,4.97,,,0.50,WeatherCatV1.02B3,2013-08-17 20:38:00,
2013-08-17 16:43:00,80.0,57.9,30.00,NNW,340,4.0,12.0,47,1.12,,,0.71,WeatherCatV1.02B3,2013-08-17 20:43:00,
2013-08-17 16:48:00,79.6,52.4,30.00,NW,316,2.0,3.0,39,0.26,,,0.74,WeatherCatV1.02B3,2013-08-17 20:48:00,
2013-08-17 16:53:00,79.8,50.4,30.00,NW,316,0.0,4.0,36,0.08,,,0.74,WeatherCatV1.02B3,2013-08-17 20:53:00,
2013-08-17 16:58:00,80.2,48.5,30.00,NW,316,0.0,0.0,33,0.05,,,0.74,WeatherCatV1.02B3,2013-08-17 20:58:00,
2013-08-17 17:03:00,80.2,48.5,30.00,NW,316,0.0,0.0,33,0.00,,,0.74,WeatherCatV1.02B3,2013-08-17 21:03:00,
2013-08-17 17:08:00,80.3,47.7,30.01,NW,316,2.0,3.0,32,0.00,,,0.74,WeatherCatV1.02B3,2013-08-17 21:08:00,
2013-08-17 17:13:00,80.3,47.7,30.02,WNW,283,4.0,5.0,32,0.00,,,0.74,WeatherCatV1.02B3,2013-08-17 21:13:00,
2013-08-17 17:18:00,80.4,47.8,30.02,WNW,283,4.0,5.0,32,0.00,,,0.74,WeatherCatV1.02B3,2013-08-17 21:18:00,
2013-08-17 17:23:00,79.4,47.8,30.02,WSW,238,2.0,6.0,33,0.00,,,0.74,WeatherCatV1.02B3,2013-08-17 21:23:00,
2013-08-17 17:28:00,79.2,47.6,30.01,WSW,238,0.0,4.0,33,0.00,,,0.74,WeatherCatV1.02B3,2013-08-17 21:28:00,
2013-08-17 17:33:00,78.9,47.3,30.01,WSW,238,1.0,6.0,33,0.00,,,0.74,WeatherCatV1.02B3,2013-08-17 21:33:00,
2013-08-17 17:38:00,78.8,47.2,30.01,WSW,238,0.0,3.0,33,0.00,,,0.74,WeatherCatV1.02B3,2013-08-17 21:38:00,
2013-08-17 17:43:00,78.9,47.3,30.01,WSW,238,0.0,0.0,33,0.00,,,0.74,WeatherCatV1.02B3,2013-08-17 21:43:00,
2013-08-17 17:48:00,79.1,47.5,30.01,WSW,238,0.0,0.0,33,0.00,,,0.74,WeatherCatV1.02B3,2013-08-17 21:48:00,
2013-08-17 17:53:00,79.1,47.5,30.01,WSW,238,0.0,4.0,33,0.00,,,0.74,WeatherCatV1.02B3,2013-08-17 21:53:00,
2013-08-17 17:58:00,79.1,47.5,30.01,WSW,238,0.0,0.0,33,0.00,,,0.74,WeatherCatV1.02B3,2013-08-17 21:58:00,
2013-08-17 18:03:00,79.3,47.7,30.03,WSW,238,4.0,4.0,33,0.00,,,0.74,WeatherCatV1.02B3,2013-08-17 22:03:00,
2013-08-17 18:08:00,79.4,47.8,30.03,WSW,237,0.0,3.0,33,0.00,,,0.74,WeatherCatV1.02B3,2013-08-17 22:08:00,
2013-08-17 18:13:00,79.3,47.7,30.05,NE,44,10.0,14.0,33,0.00,,,0.74,WeatherCatV1.02B3,2013-08-17 22:13:00,
2013-08-17 18:18:00,79.2,47.6,30.06,NE,35,0.0,0.0,33,0.00,,,0.74,WeatherCatV1.02B3,2013-08-17 22:18:00,
2013-08-17 18:23:00,79.2,47.6,30.06,NE,35,3.0,4.0,33,0.00,,,0.74,WeatherCatV1.02B3,2013-08-17 22:23:00,
2013-08-17 18:28:00,78.3,49.1,30.06,WNW,300,1.0,5.0,36,0.00,,,0.74,WeatherCatV1.02B3,2013-08-17 22:28:00,
2013-08-17 18:33:00,77.9,50.2,30.05,West,260,1.0,3.0,38,0.00,,,0.74,WeatherCatV1.02B3,2013-08-17 22:33:00,
2013-08-17 18:38:00,77.8,49.4,30.04,West,260,2.0,2.0,37,0.00,,,0.74,WeatherCatV1.02B3,2013-08-17 22:38:00,
2013-08-17 18:43:00,77.8,47.9,30.04,West,260,0.0,0.0,35,0.00,,,0.74,WeatherCatV1.02B3,2013-08-17 22:43:00,
2013-08-17 18:48:00,77.9,47.2,30.05,West,260,0.0,0.0,34,0.00,,,0.74,WeatherCatV1.02B3,2013-08-17 22:48:00,
2013-08-17 18:53:00,77.9,46.5,30.06,West,260,0.0,0.0,33,0.00,,,0.74,WeatherCatV1.02B3,2013-08-17 22:53:00,
2013-08-17 18:58:00,77.9,46.5,30.06,West,260,0.0,0.0,33,0.00,,,0.74,WeatherCatV1.02B3,2013-08-17 22:58:00,
2013-08-17 19:03:00,77.7,46.3,30.06,West,260,0.0,0.0,33,0.00,,,0.74,WeatherCatV1.02B3,2013-08-17 23:03:00,
2013-08-17 19:08:00,77.6,46.2,30.06,West,260,0.0,0.0,33,0.00,,,0.74,WeatherCatV1.02B3,2013-08-17 23:08:00,
2013-08-17 19:13:00,77.7,46.3,30.06,West,260,0.0,0.0,33,0.00,,,0.74,WeatherCatV1.02B3,2013-08-17 23:13:00,
2013-08-17 19:18:00,78.0,46.5,30.06,West,260,0.0,0.0,33,0.00,,,0.74,WeatherCatV1.02B3,2013-08-17 23:18:00,
2013-08-17 19:23:00,78.0,46.5,30.06,West,260,0.0,2.0,33,0.00,,,0.75,WeatherCatV1.02B3,2013-08-17 23:23:00,
2013-08-17 19:28:00,77.8,46.4,30.07,West,260,0.0,0.0,33,0.00,,,0.75,WeatherCatV1.02B3,2013-08-17 23:28:00,
2013-08-17 19:33:00,77.8,46.4,30.07,West,260,0.0,0.0,33,0.00,,,0.75,WeatherCatV1.02B3,2013-08-17 23:33:00,
2013-08-17 19:38:00,77.7,46.3,30.07,West,260,0.0,0.0,33,0.00,,,0.75,WeatherCatV1.02B3,2013-08-17 23:38:00,
2013-08-17 19:43:00,77.8,46.4,30.07,West,260,0.0,0.0,33,0.00,,,0.75,WeatherCatV1.02B3,2013-08-17 23:43:00,
2013-08-17 19:48:00,77.7,46.3,30.07,West,260,0.0,0.0,33,0.00,,,0.75,WeatherCatV1.02B3,2013-08-17 23:48:00,
2013-08-17 19:53:00,77.5,46.1,30.07,West,260,0.0,0.0,33,0.00,,,0.76,WeatherCatV1.02B3,2013-08-17 23:53:00,
2013-08-17 19:58:00,77.3,45.9,30.07,West,260,0.0,0.0,33,0.00,,,0.76,WeatherCatV1.02B3,2013-08-17 23:58:00,
2013-08-17 20:03:00,77.3,45.9,30.07,West,260,0.0,0.0,33,0.00,,,0.76,WeatherCatV1.02B3,2013-08-18 00:03:00,
2013-08-17 20:08:00,77.3,45.9,30.07,West,260,0.0,0.0,33,0.00,,,0.76,WeatherCatV1.02B3,2013-08-18 00:08:00,
2013-08-17 20:13:00,77.3,45.9,30.07,West,260,0.0,0.0,33,0.00,,,0.76,WeatherCatV1.02B3,2013-08-18 00:13:00,
2013-08-17 20:18:00,77.3,45.9,30.07,West,260,0.0,0.0,33,0.00,,,0.76,WeatherCatV1.02B3,2013-08-18 00:18:00,
2013-08-17 20:23:00,77.2,45.8,30.07,West,260,0.0,0.0,33,0.00,,,0.76,WeatherCatV1.02B3,2013-08-18 00:23:00,
2013-08-17 20:28:00,77.1,45.8,30.07,West,260,0.0,0.0,33,0.00,,,0.76,WeatherCatV1.02B3,2013-08-18 00:28:00,
2013-08-17 20:33:00,77.2,45.8,30.07,West,260,0.0,0.0,33,0.00,,,0.76,WeatherCatV1.02B3,2013-08-18 00:33:00,
2013-08-17 20:38:00,77.3,45.9,30.07,West,260,0.0,0.0,33,0.00,,,0.76,WeatherCatV1.02B3,2013-08-18 00:38:00,
2013-08-17 20:43:00,77.4,46.0,30.07,West,260,0.0,0.0,33,0.00,,,0.76,WeatherCatV1.02B3,2013-08-18 00:43:00,
2013-08-17 20:48:00,77.4,46.0,30.08,West,260,0.0,0.0,33,0.00,,,0.76,WeatherCatV1.02B3,2013-08-18 00:48:00,
2013-08-17 20:53:00,77.6,46.2,30.08,West,260,0.0,0.0,33,0.00,,,0.76,WeatherCatV1.02B3,2013-08-18 00:53:00,
2013-08-17 20:58:00,77.5,46.1,30.08,West,260,0.0,0.0,33,0.00,,,0.76,WeatherCatV1.02B3,2013-08-18 00:58:00,
2013-08-17 21:03:00,77.5,46.1,30.08,West,260,0.0,0.0,33,0.00,,,0.77,WeatherCatV1.02B3,2013-08-18 01:03:00,
2013-08-17 21:08:00,77.5,46.1,30.08,West,260,0.0,0.0,33,0.00,,,0.77,WeatherCatV1.02B3,2013-08-18 01:08:00,
2013-08-17 21:13:00,77.6,46.2,30.08,West,260,0.0,0.0,33,0.00,,,0.77,WeatherCatV1.02B3,2013-08-18 01:13:00,
2013-08-17 21:18:00,77.7,46.3,30.08,West,260,2.0,3.0,33,0.00,,,0.77,WeatherCatV1.02B3,2013-08-18 01:18:00,
2013-08-17 21:23:00,77.7,46.3,30.08,West,277,0.0,3.0,33,0.00,,,0.77,WeatherCatV1.02B3,2013-08-18 01:23:00,
2013-08-17 21:28:00,77.8,46.4,30.08,West,277,0.0,0.0,33,0.00,,,0.77,WeatherCatV1.02B3,2013-08-18 01:28:00,
2013-08-17 21:33:00,77.8,46.4,30.09,West,277,0.0,0.0,33,0.00,,,0.77,WeatherCatV1.02B3,2013-08-18 01:33:00,
2013-08-17 21:38:00,78.3,46.8,30.09,West,277,0.0,0.0,33,0.00,,,0.77,WeatherCatV1.02B3,2013-08-18 01:38:00,
2013-08-17 21:43:00,78.0,46.5,30.09,West,277,0.0,0.0,33,0.00,,,0.77,WeatherCatV1.02B3,2013-08-18 01:43:00,
2013-08-17 21:48:00,78.0,46.5,30.09,West,277,0.0,0.0,33,0.00,,,0.77,WeatherCatV1.02B3,2013-08-18 01:48:00,
2013-08-17 21:53:00,78.1,46.6,30.10,West,277,0.0,0.0,33,0.00,,,0.77,WeatherCatV1.02B3,2013-08-18 01:53:00,
2013-08-17 21:58:00,78.0,46.5,30.10,West,277,0.0,0.0,33,0.00,,,0.77,WeatherCatV1.02B3,2013-08-18 01:58:00,
2013-08-17 22:03:00,78.0,46.5,30.10,West,277,2.0,3.0,33,0.00,,,0.77,WeatherCatV1.02B3,2013-08-18 02:03:00,
2013-08-17 22:08:00,77.8,46.4,30.10,West,277,0.0,0.0,33,0.00,,,0.77,WeatherCatV1.02B3,2013-08-18 02:08:00,
2013-08-17 22:13:00,77.8,46.4,30.10,West,277,0.0,2.0,33,0.00,,,0.77,WeatherCatV1.02B3,2013-08-18 02:13:00,
2013-08-17 22:18:00,77.7,46.3,30.10,West,277,2.0,4.0,33,0.00,,,0.77,WeatherCatV1.02B3,2013-08-18 02:18:00,
2013-08-17 22:23:00,77.5,46.1,30.10,West,277,0.0,1.0,33,0.00,,,0.77,WeatherCatV1.02B3,2013-08-18 02:23:00,
2013-08-17 22:28:00,77.6,46.2,30.10,West,277,0.0,0.0,33,0.00,,,0.77,WeatherCatV1.02B3,2013-08-18 02:28:00,
2013-08-17 22:33:00,77.7,46.3,30.10,West,277,0.0,0.0,33,0.00,,,0.77,WeatherCatV1.02B3,2013-08-18 02:33:00,
2013-08-17 22:38:00,77.6,46.2,30.10,West,277,0.0,0.0,33,0.00,,,0.77,WeatherCatV1.02B3,2013-08-18 02:38:00,
2013-08-17 22:43:00,77.5,46.1,30.10,West,277,0.0,0.0,33,0.00,,,0.77,WeatherCatV1.02B3,2013-08-18 02:43:00,
2013-08-17 22:48:00,77.5,46.1,30.10,West,277,0.0,0.0,33,0.00,,,0.77,WeatherCatV1.02B3,2013-08-18 02:48:00,
2013-08-17 22:53:00,77.5,46.1,30.10,West,277,0.0,0.0,33,0.00,,,0.77,WeatherCatV1.02B3,2013-08-18 02:53:00,
2013-08-17 22:58:00,77.5,46.1,30.10,West,277,0.0,0.0,33,0.00,,,0.77,WeatherCatV1.02B3,2013-08-18 02:58:00,
2013-08-17 23:03:00,77.5,46.1,30.09,West,277,0.0,0.0,33,0.00,,,0.77,WeatherCatV1.02B3,2013-08-18 03:03:00,
2013-08-17 23:08:00,77.4,46.8,30.09,West,277,0.0,0.0,34,0.00,,,0.77,WeatherCatV1.02B3,2013-08-18 03:08:00,
2013-08-17 23:13:00,77.6,47.0,30.09,West,277,0.0,0.0,34,0.00,,,0.77,WeatherCatV1.02B3,2013-08-18 03:13:00,
2013-08-17 23:18:00,77.4,46.8,30.09,West,277,0.0,2.0,34,0.00,,,0.77,WeatherCatV1.02B3,2013-08-18 03:18:00,
2013-08-17 23:23:00,77.4,46.8,30.08,WNW,288,0.0,0.0,34,0.00,,,0.77,WeatherCatV1.02B3,2013-08-18 03:23:00,
2013-08-17 23:28:00,77.5,46.9,30.08,WNW,289,4.0,4.0,34,0.00,,,0.77,WeatherCatV1.02B3,2013-08-18 03:28:00,
2013-08-17 23:33:00,77.6,47.0,30.08,NW,304,0.0,0.0,34,0.00,,,0.77,WeatherCatV1.02B3,2013-08-18 03:33:00,
2013-08-17 23:38:00,77.5,46.9,30.08,NW,304,0.0,0.0,34,0.00,,,0.77,WeatherCatV1.02B3,2013-08-18 03:38:00,
2013-08-17 23:43:00,77.4,46.8,30.09,NW,304,0.0,0.0,34,0.00,,,0.77,WeatherCatV1.02B3,2013-08-18 03:43:00,
2013-08-17 23:48:00,77.6,47.0,30.09,NW,304,0.0,0.0,34,0.00,,,0.77,WeatherCatV1.02B3,2013-08-18 03:48:00,
2013-08-17 23:53:00,77.6,47.0,30.08,NW,304,0.0,0.0,34,0.00,,,0.77,WeatherCatV1.02B3,2013-08-18 03:53:00,
2013-08-17 23:58:00,77.5,46.9,30.09,NW,304,0.0,0.0,34,0.00,,,0.77,WeatherCatV1.02B3,2013-08-18 03:58:00,